Time;durP1;ratioP1;P1;durP2;ratioP2;P2;SDS_P1;SDS_P2;PMS_P1;PMS_P2;Temp;Humidity;BMP_temperature;BMP_pressure;BME280_temperature;BME280_humidity;BME280_pressure;Samples;Min_cycle;Max_cycle;Signal;HPM_P1;HPM_P2
2023/01/31 00:00:24;;;;;;;17.00;2.78;;;;;;;;;;6341714;22;20207;-59
2023/01/31 00:02:50;;;;;;;9.30;1.73;;;;;;;;;;6345753;22;20142;-60
2023/01/31 00:05:18;;;;;;;9.20;2.08;;;;;;;;;;6344079;22;20460;-60
2023/01/31 00:07:45;;;;;;;7.55;1.85;;;;;;;;;;6344732;22;20453;-61
2023/01/31 00:10:11;;;;;;;11.68;2.10;;;;;;;;;;6345612;22;20165;-60
2023/01/31 00:12:36;;;;;;;10.63;2.15;;;;;;;;;;6342523;22;20204;-58
2023/01/31 00:15:03;;;;;;;12.38;2.13;;;;;;;;;;6342331;22;20142;-58
2023/01/31 00:17:29;;;;;;;9.75;2.00;;;;;;;;;;6341748;22;20147;-60
2023/01/31 00:19:55;;;;;;;13.07;2.42;;;;;;;;;;6341527;22;20152;-60
2023/01/31 00:22:21;;;;;;;9.52;2.10;;;;;;;;;;6341335;22;20226;-60
2023/01/31 00:24:47;;;;;;;13.93;2.33;;;;;;;;;;6342252;22;20142;-59
2023/01/31 00:27:13;;;;;;;13.00;2.65;;;;;;;;;;6341372;22;20150;-61
2023/01/31 00:29:39;;;;;;;14.50;2.35;;;;;;;;;;6340948;22;20165;-61
2023/01/31 00:32:05;;;;;;;19.27;2.63;;;;;;;;;;6341212;22;20142;-61
2023/01/31 00:34:31;;;;;;;9.30;1.95;;;;;;;;;;6341347;22;20554;-61
2023/01/31 00:36:57;;;;;;;12.30;2.58;;;;;;;;;;6340946;22;20154;-61
2023/01/31 00:39:23;;;;;;;9.90;2.28;;;;;;;;;;6341270;22;20150;-61
2023/01/31 00:41:49;;;;;;;12.80;1.95;;;;;;;;;;6341148;22;20417;-61
2023/01/31 00:44:15;;;;;;;10.73;2.15;;;;;;;;;;6341279;22;20158;-61
2023/01/31 00:46:41;;;;;;;9.25;1.88;;;;;;;;;;6341135;22;20153;-61
2023/01/31 00:49:07;;;;;;;8.88;1.83;;;;;;;;;;6341798;22;20166;-61
2023/01/31 00:51:33;;;;;;;18.58;2.60;;;;;;;;;;6342960;22;20138;-60
2023/01/31 00:53:59;;;;;;;8.38;2.45;;;;;;;;;;6342086;22;20153;-60
2023/01/31 00:56:25;;;;;;;15.20;2.10;;;;;;;;;;6342881;22;20156;-61
2023/01/31 00:58:51;;;;;;;11.90;1.73;;;;;;;;;;6342644;22;20252;-61
2023/01/31 01:01:22;;;;;;;10.63;2.25;;;;;;;;;;6342914;22;20533;-60
2023/01/31 01:03:48;;;;;;;11.70;2.15;;;;;;;;;;6342614;22;20557;-60
2023/01/31 01:06:14;;;;;;;13.20;2.47;;;;;;;;;;6342961;22;20146;-61
2023/01/31 01:08:40;;;;;;;10.30;1.67;;;;;;;;;;6342743;22;20623;-61
2023/01/31 01:11:06;;;;;;;11.30;2.35;;;;;;;;;;6342411;22;20490;-61
2023/01/31 01:13:32;;;;;;;13.45;2.30;;;;;;;;;;6342438;22;20142;-61
2023/01/31 01:16:04;;;;;;;15.48;2.78;;;;;;;;;;6342971;22;20414;-61
2023/01/31 01:18:30;;;;;;;10.50;2.25;;;;;;;;;;6342907;22;20286;-60
2023/01/31 01:20:58;;;;;;;14.77;2.13;;;;;;;;;;6343077;22;20135;-60
2023/01/31 01:23:24;;;;;;;15.88;2.78;;;;;;;;;;6342923;22;20149;-60
2023/01/31 01:25:50;;;;;;;8.65;2.25;;;;;;;;;;6342737;22;20233;-61
2023/01/31 01:28:16;;;;;;;13.48;2.40;;;;;;;;;;6342360;22;20184;-59
2023/01/31 01:30:42;;;;;;;13.38;2.20;;;;;;;;;;6342985;22;20139;-59
2023/01/31 01:33:09;;;;;;;11.05;2.60;;;;;;;;;;6342629;22;20134;-61
2023/01/31 01:35:35;;;;;;;14.75;2.63;;;;;;;;;;6342731;22;20183;-61
2023/01/31 01:38:01;;;;;;;9.30;1.88;;;;;;;;;;6342509;22;20166;-61
2023/01/31 01:40:34;;;;;;;11.30;2.03;;;;;;;;;;6342629;22;20142;-61
2023/01/31 01:43:01;;;;;;;9.40;2.45;;;;;;;;;;6342224;22;20569;-61
2023/01/31 01:45:27;;;;;;;8.80;1.70;;;;;;;;;;6342699;22;20488;-60
2023/01/31 01:47:54;;;;;;;7.82;2.03;;;;;;;;;;6342219;22;20166;-57
2023/01/31 01:50:29;;;;;;;19.55;3.22;;;;;;;;;;6342602;22;20157;-57
2023/01/31 01:52:55;;;;;;;12.85;2.42;;;;;;;;;;6342727;22;20478;-58
2023/01/31 01:55:23;;;;;;;8.90;1.70;;;;;;;;;;6342234;22;20153;-61
2023/01/31 01:57:51;;;;;;;14.63;2.00;;;;;;;;;;6342491;22;20544;-61
2023/01/31 02:00:28;;;;;;;9.68;1.70;;;;;;;;;;6342020;22;20185;-60
2023/01/31 02:02:56;;;;;;;10.68;2.38;;;;;;;;;;6342167;22;20153;-61
2023/01/31 02:05:28;;;;;;;11.52;2.22;;;;;;;;;;6342496;22;20142;-61
2023/01/31 02:07:55;;;;;;;9.07;1.80;;;;;;;;;;6341887;22;20516;-60
2023/01/31 02:10:32;;;;;;;7.00;1.98;;;;;;;;;;6342232;22;20441;-60
2023/01/31 02:12:59;;;;;;;9.05;2.00;;;;;;;;;;6342481;22;20122;-61
2023/01/31 02:15:25;;;;;;;8.20;1.70;;;;;;;;;;6342635;22;20153;-57
2023/01/31 02:17:52;;;;;;;7.72;2.30;;;;;;;;;;6342329;22;20225;-58
2023/01/31 02:20:27;;;;;;;10.00;2.30;;;;;;;;;;6342507;22;20197;-59
2023/01/31 02:22:53;;;;;;;12.02;2.67;;;;;;;;;;6342098;22;20165;-59
2023/01/31 02:25:37;;;;;;;14.50;2.15;;;;;;;;;;6342042;22;20138;-61
2023/01/31 02:28:14;;;;;;;12.15;1.95;;;;;;;;;;6341717;22;20391;-60
2023/01/31 02:30:53;;;;;;;9.38;2.20;;;;;;;;;;6342387;22;20137;-58
2023/01/31 02:33:23;;;;;;;9.00;2.00;;;;;;;;;;6342291;22;20198;-60
2023/01/31 02:36:04;;;;;;;9.85;2.13;;;;;;;;;;6342466;22;20437;-60
2023/01/31 02:38:43;;;;;;;9.38;1.92;;;;;;;;;;6341601;22;20250;-60
2023/01/31 02:41:09;;;;;;;11.23;2.30;;;;;;;;;;6342052;22;20138;-58
2023/01/31 02:46:34;;;;;;;11.23;1.92;;;;;;;;;;6342045;22;20141;-60
2023/01/31 02:49:04;;;;;;;9.13;2.00;;;;;;;;;;6341471;22;20190;-61
2023/01/31 02:51:37;;;;;;;9.68;2.05;;;;;;;;;;6341915;22;20157;-60
2023/01/31 02:54:08;;;;;;;10.85;1.55;;;;;;;;;;6342437;22;20137;-60
2023/01/31 02:56:36;;;;;;;11.10;2.10;;;;;;;;;;6341762;22;20538;-60
2023/01/31 02:59:04;;;;;;;9.65;1.73;;;;;;;;;;6342241;22;20161;-60
2023/01/31 03:01:35;;;;;;;9.82;1.58;;;;;;;;;;6341961;22;20150;-61
2023/01/31 03:04:03;;;;;;;7.63;2.00;;;;;;;;;;6342167;22;20423;-61
2023/01/31 03:06:35;;;;;;;8.45;1.63;;;;;;;;;;6362007;22;20162;-61
2023/01/31 03:09:01;;;;;;;11.27;1.90;;;;;;;;;;6366143;22;20584;-60
2023/01/31 03:11:42;;;;;;;13.00;2.15;;;;;;;;;;6353127;22;20146;-61
2023/01/31 03:14:13;;;;;;;12.13;2.00;;;;;;;;;;6345854;22;20153;-61
2023/01/31 03:19:40;;;;;;;5.20;1.27;;;;;;;;;;6365068;22;20145;-60
2023/01/31 03:22:14;;;;;;;9.00;1.63;;;;;;;;;;6360022;22;20198;-60
2023/01/31 03:24:41;;;;;;;9.75;1.88;;;;;;;;;;6353677;22;20184;-61
2023/01/31 03:27:07;;;;;;;12.07;2.38;;;;;;;;;;6350804;22;20151;-61
2023/01/31 03:29:34;;;;;;;10.30;1.65;;;;;;;;;;6348461;22;20196;-61
2023/01/31 03:32:03;;;;;;;9.23;1.60;;;;;;;;;;6346868;22;20545;-56
2023/01/31 03:34:30;;;;;;;10.10;1.92;;;;;;;;;;6342062;22;20242;-60
2023/01/31 03:37:16;;;;;;;6.30;1.58;;;;;;;;;;6340421;22;20158;-60
2023/01/31 03:39:59;;;;;;;4.78;1.20;;;;;;;;;;6320141;22;20138;-58
2023/01/31 03:42:30;;;;;;;7.95;1.85;;;;;;;;;;6341721;22;20154;-60
2023/01/31 03:44:56;;;;;;;10.35;1.40;;;;;;;;;;6341667;22;20226;-58
2023/01/31 03:47:29;;;;;;;10.60;1.83;;;;;;;;;;6341691;22;20142;-60
2023/01/31 03:49:56;;;;;;;7.60;1.20;;;;;;;;;;6341410;22;20189;-59
2023/01/31 03:52:26;;;;;;;9.73;2.17;;;;;;;;;;6341912;22;20206;-60
2023/01/31 03:55:12;;;;;;;6.82;1.73;;;;;;;;;;6341013;22;20187;-59
2023/01/31 03:57:39;;;;;;;10.00;1.60;;;;;;;;;;6341267;22;20146;-57
2023/01/31 04:00:08;;;;;;;9.38;2.22;;;;;;;;;;6341296;22;20139;-59
2023/01/31 04:02:36;;;;;;;6.80;1.52;;;;;;;;;;6341962;22;20157;-61
2023/01/31 04:05:07;;;;;;;10.35;1.48;;;;;;;;;;6341000;22;20153;-60
2023/01/31 04:07:33;;;;;;;8.57;1.58;;;;;;;;;;6341526;22;20155;-59
2023/01/31 04:10:00;;;;;;;5.97;1.63;;;;;;;;;;6341133;22;20166;-59
2023/01/31 04:12:26;;;;;;;7.32;1.42;;;;;;;;;;6341511;22;20239;-61
2023/01/31 04:14:52;;;;;;;6.53;1.20;;;;;;;;;;6341236;22;20134;-59
2023/01/31 04:17:18;;;;;;;9.75;2.00;;;;;;;;;;6341119;22;20137;-60
2023/01/31 04:19:44;;;;;;;5.60;1.15;;;;;;;;;;6341014;22;20151;-60
2023/01/31 04:22:10;;;;;;;4.32;1.30;;;;;;;;;;6341918;22;20139;-60
2023/01/31 04:24:36;;;;;;;5.75;1.25;;;;;;;;;;6342319;22;20564;-60
2023/01/31 04:27:02;;;;;;;8.13;1.60;;;;;;;;;;6343079;22;20189;-60
2023/01/31 04:29:27;;;;;;;6.20;1.33;;;;;;;;;;6343210;22;20172;-60
2023/01/31 04:31:53;;;;;;;4.78;1.20;;;;;;;;;;6343358;22;20139;-60
2023/01/31 04:34:19;;;;;;;7.15;1.13;;;;;;;;;;6342814;22;20142;-61
2023/01/31 04:36:45;;;;;;;7.75;1.45;;;;;;;;;;6342732;22;20218;-60
2023/01/31 04:39:13;;;;;;;7.82;1.05;;;;;;;;;;6343654;22;20131;-58
2023/01/31 04:41:39;;;;;;;11.48;1.88;;;;;;;;;;6343304;22;20442;-59
2023/01/31 04:44:05;;;;;;;7.47;1.35;;;;;;;;;;6343072;22;20138;-60
2023/01/31 04:46:31;;;;;;;8.20;1.30;;;;;;;;;;6342767;22;20554;-60
2023/01/31 04:48:57;;;;;;;7.05;1.58;;;;;;;;;;6342953;22;20189;-61
2023/01/31 04:51:23;;;;;;;7.28;1.52;;;;;;;;;;6342711;22;20147;-61
2023/01/31 04:53:49;;;;;;;5.47;1.30;;;;;;;;;;6343019;22;20142;-61
2023/01/31 04:56:15;;;;;;;3.90;1.20;;;;;;;;;;6342906;22;20164;-60
2023/01/31 04:58:42;;;;;;;4.65;1.08;;;;;;;;;;6342923;22;20158;-61
2023/01/31 05:01:08;;;;;;;6.85;1.38;;;;;;;;;;6343132;22;20146;-60
2023/01/31 05:03:34;;;;;;;8.05;1.52;;;;;;;;;;6342870;22;20182;-60
2023/01/31 05:06:00;;;;;;;7.25;1.27;;;;;;;;;;6342882;22;20150;-60
2023/01/31 05:08:26;;;;;;;6.63;1.60;;;;;;;;;;6343043;22;20431;-60
2023/01/31 05:10:59;;;;;;;5.82;1.10;;;;;;;;;;6342999;22;20577;-58
2023/01/31 05:13:25;;;;;;;8.10;1.58;;;;;;;;;;6343340;22;20142;-58
2023/01/31 05:15:50;;;;;;;4.63;1.33;;;;;;;;;;6342818;22;20233;-61
2023/01/31 05:18:16;;;;;;;8.02;1.35;;;;;;;;;;6342994;22;20150;-61
2023/01/31 05:20:42;;;;;;;6.05;1.33;;;;;;;;;;6342825;22;20146;-61
2023/01/31 05:23:09;;;;;;;6.55;1.45;;;;;;;;;;6342491;22;20138;-61
2023/01/31 05:25:35;;;;;;;10.35;1.50;;;;;;;;;;6342277;22;20560;-61
2023/01/31 05:28:02;;;;;;;6.00;1.42;;;;;;;;;;6342241;22;20166;-60
2023/01/31 05:30:28;;;;;;;10.20;1.67;;;;;;;;;;6342763;22;20149;-60
2023/01/31 05:32:54;;;;;;;8.75;1.70;;;;;;;;;;6342440;22;20147;-61
2023/01/31 05:35:20;;;;;;;8.90;1.58;;;;;;;;;;6342181;22;20424;-60
2023/01/31 05:37:46;;;;;;;7.10;1.20;;;;;;;;;;6342409;22;20172;-60
2023/01/31 05:40:13;;;;;;;6.88;1.58;;;;;;;;;;6342888;22;20149;-60
2023/01/31 05:42:39;;;;;;;7.40;1.35;;;;;;;;;;6342301;22;20567;-61
2023/01/31 05:45:06;;;;;;;6.35;1.20;;;;;;;;;;6342432;22;20138;-61
2023/01/31 05:47:32;;;;;;;7.72;1.55;;;;;;;;;;6342556;22;20225;-59
2023/01/31 05:49:58;;;;;;;10.20;1.90;;;;;;;;;;6342526;22;20198;-58
2023/01/31 05:52:24;;;;;;;6.72;1.42;;;;;;;;;;6342824;22;20147;-58
2023/01/31 05:54:50;;;;;;;10.63;1.85;;;;;;;;;;6342237;22;20546;-59
2023/01/31 05:57:16;;;;;;;10.07;1.52;;;;;;;;;;6342315;22;20142;-61
2023/01/31 05:59:42;;;;;;;10.85;1.77;;;;;;;;;;6342365;22;20160;-61
2023/01/31 06:02:10;;;;;;;6.15;1.42;;;;;;;;;;6342157;22;20174;-56
2023/01/31 06:04:36;;;;;;;4.75;1.38;;;;;;;;;;6343206;22;20233;-59
2023/01/31 06:07:02;;;;;;;8.65;1.50;;;;;;;;;;6342175;22;20142;-57
2023/01/31 06:09:28;;;;;;;7.68;1.60;;;;;;;;;;6341853;22;20170;-60
2023/01/31 06:11:54;;;;;;;11.27;1.58;;;;;;;;;;6342013;22;20142;-61
2023/01/31 06:14:19;;;;;;;9.45;1.80;;;;;;;;;;6342354;22;20142;-61
2023/01/31 06:16:45;;;;;;;8.07;1.58;;;;;;;;;;6342087;22;20267;-61
2023/01/31 06:19:11;;;;;;;10.85;1.80;;;;;;;;;;6341986;22;20146;-61
2023/01/31 06:21:37;;;;;;;13.18;1.50;;;;;;;;;;6342100;22;20546;-61
2023/01/31 06:24:03;;;;;;;13.45;1.98;;;;;;;;;;6342282;22;20446;-60
2023/01/31 06:26:29;;;;;;;9.75;1.75;;;;;;;;;;6342038;22;20161;-61
2023/01/31 06:28:55;;;;;;;14.75;2.15;;;;;;;;;;6341658;22;20163;-60
2023/01/31 06:31:21;;;;;;;8.77;1.48;;;;;;;;;;6342316;22;20142;-59
2023/01/31 06:33:47;;;;;;;10.77;1.58;;;;;;;;;;6342186;22;20135;-61
2023/01/31 06:36:13;;;;;;;10.45;1.63;;;;;;;;;;6341651;22;20564;-60
2023/01/31 06:38:39;;;;;;;8.50;1.63;;;;;;;;;;6341570;22;20158;-61
2023/01/31 06:41:05;;;;;;;9.40;1.70;;;;;;;;;;6342026;22;20597;-61
2023/01/31 06:43:31;;;;;;;12.07;2.17;;;;;;;;;;6342007;22;20154;-60
2023/01/31 06:45:57;;;;;;;8.15;1.70;;;;;;;;;;6341807;22;20229;-60
2023/01/31 06:48:23;;;;;;;6.38;1.67;;;;;;;;;;6341981;22;20174;-60
2023/01/31 06:50:49;;;;;;;11.07;1.80;;;;;;;;;;6341994;22;20138;-59
2023/01/31 06:53:15;;;;;;;5.30;1.45;;;;;;;;;;6342421;22;20217;-59
2023/01/31 06:55:41;;;;;;;7.53;1.77;;;;;;;;;;6342088;22;20225;-61
2023/01/31 06:58:07;;;;;;;9.52;1.63;;;;;;;;;;6341860;22;20149;-59
2023/01/31 07:00:33;;;;;;;9.93;2.10;;;;;;;;;;6341526;22;20528;-61
2023/01/31 07:02:59;;;;;;;6.97;1.65;;;;;;;;;;6341596;22;20142;-61
2023/01/31 07:05:25;;;;;;;9.38;1.20;;;;;;;;;;6341809;22;20168;-60
2023/01/31 07:07:51;;;;;;;7.85;1.60;;;;;;;;;;6341465;22;20552;-61
2023/01/31 07:10:17;;;;;;;8.20;1.42;;;;;;;;;;6341427;22;20162;-60
2023/01/31 07:12:43;;;;;;;9.25;1.83;;;;;;;;;;6341300;22;20142;-59
2023/01/31 07:15:10;;;;;;;7.30;1.50;;;;;;;;;;6341282;22;20250;-61
2023/01/31 07:17:36;;;;;;;11.20;1.95;;;;;;;;;;6341188;22;20134;-62
2023/01/31 07:20:02;;;;;;;10.40;1.58;;;;;;;;;;6341638;22;20146;-61
2023/01/31 07:22:28;;;;;;;11.80;1.80;;;;;;;;;;6341128;22;20602;-62
2023/01/31 07:24:54;;;;;;;7.07;1.50;;;;;;;;;;6341729;22;20142;-62
2023/01/31 07:27:19;;;;;;;7.53;1.65;;;;;;;;;;6341512;22;20146;-61
2023/01/31 07:29:45;;;;;;;8.07;1.63;;;;;;;;;;6341503;22;20258;-60
2023/01/31 07:32:12;;;;;;;5.18;1.52;;;;;;;;;;6341469;22;20149;-61
2023/01/31 07:34:38;;;;;;;10.13;1.80;;;;;;;;;;6341601;22;20434;-61
2023/01/31 07:37:04;;;;;;;7.95;1.73;;;;;;;;;;6341095;22;20158;-62
2023/01/31 07:39:30;;;;;;;8.23;1.85;;;;;;;;;;6341516;22;20150;-61
2023/01/31 07:41:56;;;;;;;9.90;1.83;;;;;;;;;;6341454;22;20465;-62
2023/01/31 07:44:22;;;;;;;7.70;1.52;;;;;;;;;;6341509;22;20153;-62
2023/01/31 07:46:48;;;;;;;5.53;1.58;;;;;;;;;;6340986;22;20142;-61
2023/01/31 07:49:13;;;;;;;8.13;1.65;;;;;;;;;;6340983;22;20179;-61
2023/01/31 07:51:39;;;;;;;7.50;1.45;;;;;;;;;;6340251;22;20230;-61
2023/01/31 07:54:06;;;;;;;7.35;2.00;;;;;;;;;;6341333;22;20138;-62
2023/01/31 07:56:32;;;;;;;5.28;1.15;;;;;;;;;;6341011;22;20141;-62
2023/01/31 07:58:59;;;;;;;8.88;2.03;;;;;;;;;;6341287;22;20149;-60
2023/01/31 08:04:11;;;;;;;5.55;1.70;;;;;;;;;;6341227;22;20141;-56
2023/01/31 08:06:38;;;;;;;10.25;4.30;;;;;;;;;;6341707;22;20142;-60
2023/01/31 08:09:04;;;;;;;9.15;2.45;;;;;;;;;;6341698;22;20173;-59
2023/01/31 08:11:30;;;;;;;6.07;1.58;;;;;;;;;;6341247;22;20142;-58
2023/01/31 08:13:56;;;;;;;9.93;1.70;;;;;;;;;;6341219;22;20142;-57
2023/01/31 08:16:22;;;;;;;7.82;1.58;;;;;;;;;;6341281;22;20433;-58
2023/01/31 08:18:49;;;;;;;8.27;2.42;;;;;;;;;;6341629;22;20142;-59
2023/01/31 08:21:15;;;;;;;8.40;2.00;;;;;;;;;;6341432;22;20416;-60
2023/01/31 08:23:41;;;;;;;11.38;2.20;;;;;;;;;;6342114;22;20438;-60
2023/01/31 08:26:10;;;;;;;10.40;1.80;;;;;;;;;;6341365;22;20444;-61
2023/01/31 08:28:37;;;;;;;10.63;2.25;;;;;;;;;;6340499;22;20158;-61
2023/01/31 08:31:04;;;;;;;9.55;2.50;;;;;;;;;;6340862;22;20149;-61
2023/01/31 08:33:29;;;;;;;5.82;2.00;;;;;;;;;;6341099;22;20165;-60
2023/01/31 08:35:56;;;;;;;12.48;2.53;;;;;;;;;;6341040;22;20134;-60
2023/01/31 08:38:22;;;;;;;8.80;2.35;;;;;;;;;;6338499;22;20442;-62
2023/01/31 08:40:49;;;;;;;10.43;2.30;;;;;;;;;;6338441;22;20142;-61
2023/01/31 08:43:15;;;;;;;12.45;2.38;;;;;;;;;;6339093;22;20212;-61
2023/01/31 08:45:41;;;;;;;7.85;2.53;;;;;;;;;;6338532;22;20162;-62
2023/01/31 08:48:07;;;;;;;13.45;2.22;;;;;;;;;;6338434;22;20153;-62
2023/01/31 08:50:33;;;;;;;8.68;2.58;;;;;;;;;;6338706;22;20138;-60
2023/01/31 08:53:00;;;;;;;9.40;2.72;;;;;;;;;;6338417;22;20444;-62
2023/01/31 08:55:27;;;;;;;9.18;2.08;;;;;;;;;;6338941;22;20139;-61
2023/01/31 08:57:53;;;;;;;9.05;2.17;;;;;;;;;;6338577;22;20135;-61
2023/01/31 09:00:20;;;;;;;7.50;2.25;;;;;;;;;;6339421;22;20206;-61
2023/01/31 09:02:56;;;;;;;6.43;2.20;;;;;;;;;;6338683;22;20163;-61
2023/01/31 09:05:23;;;;;;;7.28;2.33;;;;;;;;;;6339827;22;20418;-60
2023/01/31 09:07:49;;;;;;;7.15;2.50;;;;;;;;;;6341223;22;20170;-60
2023/01/31 09:10:16;;;;;;;14.10;2.53;;;;;;;;;;6342266;22;20149;-60
2023/01/31 09:12:42;;;;;;;12.02;2.67;;;;;;;;;;6345167;22;20142;-61
2023/01/31 09:15:08;;;;;;;8.95;2.10;;;;;;;;;;6345565;22;20490;-60
2023/01/31 09:17:34;;;;;;;9.65;2.70;;;;;;;;;;6345912;22;20229;-61
2023/01/31 09:20:05;;;;;;;13.25;2.75;;;;;;;;;;6344606;22;20164;-60
2023/01/31 09:22:31;;;;;;;9.55;3.20;;;;;;;;;;6345088;22;20127;-59
2023/01/31 09:24:57;;;;;;;10.45;3.08;;;;;;;;;;6344233;22;20570;-59
2023/01/31 09:27:23;;;;;;;10.20;2.15;;;;;;;;;;6343879;22;20254;-61
2023/01/31 09:29:49;;;;;;;14.45;5.35;;;;;;;;;;6343080;22;20197;-61
2023/01/31 09:32:15;;;;;;;13.45;3.40;;;;;;;;;;6342604;22;20153;-60
2023/01/31 09:34:41;;;;;;;11.57;2.50;;;;;;;;;;6342308;22;20154;-60
2023/01/31 09:37:06;;;;;;;9.35;2.20;;;;;;;;;;6342322;22;20196;-61
2023/01/31 09:39:33;;;;;;;9.07;2.22;;;;;;;;;;6342249;22;20146;-61
2023/01/31 09:42:06;;;;;;;10.25;2.33;;;;;;;;;;6342697;22;20166;-61
2023/01/31 09:44:37;;;;;;;15.05;2.70;;;;;;;;;;6342858;22;20205;-60
2023/01/31 09:47:16;;;;;;;8.77;2.95;;;;;;;;;;6342533;22;20130;-60
2023/01/31 09:49:52;;;;;;;11.75;3.83;;;;;;;;;;6342413;22;20162;-61
2023/01/31 09:52:18;;;;;;;9.80;3.00;;;;;;;;;;6342404;22;20152;-61
2023/01/31 09:54:44;;;;;;;10.25;3.50;;;;;;;;;;6342557;22;20228;-61
2023/01/31 09:57:29;;;;;;;13.93;3.65;;;;;;;;;;6342039;22;20162;-61
2023/01/31 10:00:02;;;;;;;9.95;3.38;;;;;;;;;;6342157;22;20564;-61
2023/01/31 10:02:28;;;;;;;11.18;3.75;;;;;;;;;;6342204;22;20130;-61
2023/01/31 10:05:21;;;;;;;12.32;3.83;;;;;;;;;;6342762;22;20174;-61
2023/01/31 10:07:56;;;;;;;10.13;3.85;;;;;;;;;;6342321;22;20403;-61
2023/01/31 10:10:40;;;;;;;10.77;4.10;;;;;;;;;;6342206;22;20146;-58
2023/01/31 10:13:28;;;;;;;9.50;3.67;;;;;;;;;;6342063;22;20203;-61
2023/01/31 10:15:58;;;;;;;12.60;4.57;;;;;;;;;;6342399;22;20180;-61
2023/01/31 10:18:31;;;;;;;8.88;4.93;;;;;;;;;;6342159;22;20548;-61
2023/01/31 10:21:01;;;;;;;11.73;4.13;;;;;;;;;;6341681;22;20414;-61
2023/01/31 10:23:36;;;;;;;7.88;3.42;;;;;;;;;;6341759;22;20157;-62
2023/01/31 10:26:05;;;;;;;10.43;3.83;;;;;;;;;;6342060;22;20146;-61
2023/01/31 10:28:38;;;;;;;7.85;3.38;;;;;;;;;;6341917;22;20466;-61
2023/01/31 10:31:16;;;;;;;7.50;3.28;;;;;;;;;;6342007;22;20229;-61
2023/01/31 10:33:56;;;;;;;10.50;3.38;;;;;;;;;;6342014;22;20131;-61
2023/01/31 10:36:26;;;;;;;10.88;3.40;;;;;;;;;;6341908;22;20225;-61
2023/01/31 10:39:14;;;;;;;11.57;3.20;;;;;;;;;;6342093;22;20239;-61
2023/01/31 10:41:58;;;;;;;7.82;3.42;;;;;;;;;;6342027;22;20134;-61
2023/01/31 10:44:30;;;;;;;12.52;3.65;;;;;;;;;;6341621;22;20187;-60
2023/01/31 10:46:57;;;;;;;9.13;3.30;;;;;;;;;;6342186;22;20141;-59
2023/01/31 10:49:24;;;;;;;7.88;3.95;;;;;;;;;;6341594;22;20158;-58
2023/01/31 10:51:50;;;;;;;10.68;3.60;;;;;;;;;;6341817;22;20142;-58
2023/01/31 10:54:28;;;;;;;10.52;3.63;;;;;;;;;;6341764;22;20170;-59
2023/01/31 10:56:54;;;;;;;10.27;4.10;;;;;;;;;;6342069;22;20126;-59
2023/01/31 10:59:20;;;;;;;7.43;3.17;;;;;;;;;;6341834;22;20142;-60
2023/01/31 11:01:46;;;;;;;6.90;3.03;;;;;;;;;;6341656;22;20686;-61
2023/01/31 11:04:29;;;;;;;7.50;3.30;;;;;;;;;;6341051;22;20599;-62
2023/01/31 11:06:56;;;;;;;4.43;2.40;;;;;;;;;;6341421;22;20153;-62
2023/01/31 11:09:23;;;;;;;10.32;3.10;;;;;;;;;;6341452;22;20158;-60
2023/01/31 11:11:54;;;;;;;8.35;2.75;;;;;;;;;;6341628;22;20147;-60
2023/01/31 11:14:20;;;;;;;8.55;3.50;;;;;;;;;;6341619;22;20158;-62
2023/01/31 11:16:47;;;;;;;8.13;2.67;;;;;;;;;;6341690;22;20149;-61
2023/01/31 11:19:17;;;;;;;6.35;3.13;;;;;;;;;;6341481;22;20157;-61
2023/01/31 11:21:48;;;;;;;6.57;3.20;;;;;;;;;;6341680;22;20432;-61
2023/01/31 11:24:19;;;;;;;8.02;4.03;;;;;;;;;;6341552;22;20131;-61
2023/01/31 11:26:51;;;;;;;7.63;3.47;;;;;;;;;;6341196;22;20143;-60
2023/01/31 11:29:21;;;;;;;8.85;3.40;;;;;;;;;;6341217;22;20166;-63
2023/01/31 11:31:48;;;;;;;5.78;3.05;;;;;;;;;;6341544;22;20418;-62
2023/01/31 11:34:18;;;;;;;6.40;2.90;;;;;;;;;;6340863;22;20193;-60
2023/01/31 11:36:45;;;;;;;8.95;3.22;;;;;;;;;;6341137;22;20181;-59
2023/01/31 11:39:23;;;;;;;8.93;3.70;;;;;;;;;;6341437;22;20202;-61
2023/01/31 11:41:49;;;;;;;8.27;3.75;;;;;;;;;;6341174;22;20142;-61
2023/01/31 11:44:16;;;;;;;7.90;3.85;;;;;;;;;;6341078;22;20448;-60
2023/01/31 11:46:44;;;;;;;8.52;3.42;;;;;;;;;;6341511;22;20225;-62
2023/01/31 11:49:12;;;;;;;9.63;3.78;;;;;;;;;;6341274;22;20252;-61
2023/01/31 11:51:39;;;;;;;10.32;3.80;;;;;;;;;;6341006;22;20571;-60
2023/01/31 11:54:05;;;;;;;6.90;3.38;;;;;;;;;;6341317;22;20146;-62
2023/01/31 11:56:35;;;;;;;6.72;3.78;;;;;;;;;;6341209;22;20226;-61
2023/01/31 11:59:04;;;;;;;6.55;3.30;;;;;;;;;;6341741;22;20435;-62
2023/01/31 12:01:31;;;;;;;7.45;4.07;;;;;;;;;;6341651;22;20224;-61
2023/01/31 12:03:58;;;;;;;4.95;3.65;;;;;;;;;;6341535;22;20503;-61
2023/01/31 12:06:27;;;;;;;8.73;4.13;;;;;;;;;;6341594;22;20234;-60
2023/01/31 12:08:56;;;;;;;7.65;3.75;;;;;;;;;;6341140;22;20190;-59
2023/01/31 12:11:30;;;;;;;8.20;3.95;;;;;;;;;;6341034;22;20138;-59
2023/01/31 12:14:16;;;;;;;6.28;3.42;;;;;;;;;;6341425;22;20150;-61
2023/01/31 12:16:44;;;;;;;5.78;3.63;;;;;;;;;;6341312;22;20569;-61
2023/01/31 12:19:13;;;;;;;5.43;3.50;;;;;;;;;;6341024;22;20141;-62
2023/01/31 12:21:39;;;;;;;6.55;3.63;;;;;;;;;;6341288;22;20153;-60
2023/01/31 12:24:04;;;;;;;8.13;4.03;;;;;;;;;;6340877;22;20150;-61
2023/01/31 12:26:30;;;;;;;4.90;3.97;;;;;;;;;;6341486;22;20146;-60
2023/01/31 12:29:29;;;;;;;6.63;3.90;;;;;;;;;;6341644;22;20162;-61
2023/01/31 12:32:02;;;;;;;8.13;3.60;;;;;;;;;;6274467;22;20150;-61
2023/01/31 12:34:28;;;;;;;8.80;3.50;;;;;;;;;;6342039;22;20209;-61
2023/01/31 12:36:54;;;;;;;5.75;3.28;;;;;;;;;;6341713;22;20150;-61
2023/01/31 12:39:40;;;;;;;4.35;3.30;;;;;;;;;;6341720;22;20451;-60
2023/01/31 12:42:23;;;;;;;4.35;3.08;;;;;;;;;;6341657;22;20452;-61
2023/01/31 12:45:07;;;;;;;4.47;2.88;;;;;;;;;;6342568;22;20193;-61
2023/01/31 12:47:36;;;;;;;6.45;3.13;;;;;;;;;;6343748;22;20142;-61
2023/01/31 12:50:15;;;;;;;4.07;2.90;;;;;;;;;;6344140;22;20173;-61
2023/01/31 12:52:50;;;;;;;4.50;2.53;;;;;;;;;;6343792;22;20556;-62
2023/01/31 12:55:38;;;;;;;4.57;2.63;;;;;;;;;;6343405;22;20152;-62
2023/01/31 12:58:07;;;;;;;5.15;3.00;;;;;;;;;;6343039;22;20152;-62
2023/01/31 13:00:36;;;;;;;5.25;2.50;;;;;;;;;;6343088;22;20487;-62
2023/01/31 13:03:28;;;;;;;3.92;2.60;;;;;;;;;;6343445;22;20432;-62
2023/01/31 13:05:58;;;;;;;4.22;2.63;;;;;;;;;;6343411;22;20195;-62
2023/01/31 13:08:26;;;;;;;4.10;2.40;;;;;;;;;;6343099;22;20177;-62
2023/01/31 13:10:57;;;;;;;2.70;2.13;;;;;;;;;;6342847;22;20213;-62
2023/01/31 13:13:31;;;;;;;2.95;2.45;;;;;;;;;;6343326;22;20237;-62
2023/01/31 13:16:15;;;;;;;2.90;1.70;;;;;;;;;;6342974;22;20494;-62
2023/01/31 13:18:42;;;;;;;3.05;1.80;;;;;;;;;;6343117;22;20224;-62
2023/01/31 13:21:10;;;;;;;2.22;1.63;;;;;;;;;;6342694;22;20152;-60
2023/01/31 13:23:41;;;;;;;2.17;1.65;;;;;;;;;;6342829;22;20158;-60
2023/01/31 13:26:10;;;;;;;1.25;1.10;;;;;;;;;;6342574;22;20181;-60
2023/01/31 13:28:46;;;;;;;2.45;1.48;;;;;;;;;;6343199;22;20159;-60
2023/01/31 13:31:19;;;;;;;1.83;1.20;;;;;;;;;;6342989;22;20153;-61
2023/01/31 13:33:45;;;;;;;1.80;1.38;;;;;;;;;;6343358;22;20127;-60
2023/01/31 13:36:30;;;;;;;1.95;1.40;;;;;;;;;;6343150;22;20432;-61
2023/01/31 13:38:57;;;;;;;2.00;1.35;;;;;;;;;;6343008;22;20134;-60
2023/01/31 13:41:33;;;;;;;3.60;1.40;;;;;;;;;;6342605;22;20199;-60
2023/01/31 13:44:00;;;;;;;1.45;1.20;;;;;;;;;;6343140;22;20225;-59
2023/01/31 13:46:46;;;;;;;2.67;1.33;;;;;;;;;;6343143;22;20155;-60
2023/01/31 13:49:27;;;;;;;3.42;1.20;;;;;;;;;;6342457;22;20170;-60
2023/01/31 13:51:58;;;;;;;1.98;1.25;;;;;;;;;;6342899;22;20153;-60
2023/01/31 13:54:36;;;;;;;1.33;0.88;;;;;;;;;;6342866;22;20568;-60
2023/01/31 13:57:03;;;;;;;1.35;1.05;;;;;;;;;;6342050;22;20164;-62
2023/01/31 13:59:31;;;;;;;4.30;1.35;;;;;;;;;;6342852;22;20626;-62
2023/01/31 14:01:58;;;;;;;1.33;0.95;;;;;;;;;;6343159;22;20157;-61
2023/01/31 14:04:35;;;;;;;1.77;1.10;;;;;;;;;;6343443;22;20146;-61
2023/01/31 14:07:03;;;;;;;2.00;1.40;;;;;;;;;;6367164;22;20378;-61
2023/01/31 14:09:36;;;;;;;1.42;1.10;;;;;;;;;;6342898;22;20177;-62
2023/01/31 14:12:15;;;;;;;1.58;1.00;;;;;;;;;;6342862;22;20187;-63
2023/01/31 14:14:44;;;;;;;2.35;1.10;;;;;;;;;;6342958;22;20438;-63
2023/01/31 14:17:10;;;;;;;3.78;1.58;;;;;;;;;;6342749;22;20203;-62
2023/01/31 14:19:45;;;;;;;2.10;1.25;;;;;;;;;;6343123;22;20150;-60
2023/01/31 14:22:14;;;;;;;3.97;1.48;;;;;;;;;;6343059;22;20141;-60
2023/01/31 14:24:51;;;;;;;3.42;1.40;;;;;;;;;;6343383;22;20154;-60
2023/01/31 14:27:18;;;;;;;2.95;1.45;;;;;;;;;;6343396;22;20162;-59
2023/01/31 14:29:46;;;;;;;4.57;1.27;;;;;;;;;;6343067;22;20257;-61
2023/01/31 14:32:16;;;;;;;3.28;1.40;;;;;;;;;;6342820;22;20142;-62
2023/01/31 14:34:47;;;;;;;2.10;1.20;;;;;;;;;;6343158;22;20231;-60
2023/01/31 14:37:36;;;;;;;4.25;1.50;;;;;;;;;;6342731;22;20177;-59
2023/01/31 14:40:20;;;;;;;4.80;1.50;;;;;;;;;;6284986;22;20287;-62
2023/01/31 14:42:49;;;;;;;4.32;1.98;;;;;;;;;;6342649;22;20142;-61
2023/01/31 14:45:25;;;;;;;3.20;1.75;;;;;;;;;;6343251;22;20150;-62
2023/01/31 14:47:58;;;;;;;4.93;1.42;;;;;;;;;;6343017;22;20156;-61
2023/01/31 14:50:31;;;;;;;6.47;1.63;;;;;;;;;;6343608;22;20249;-60
2023/01/31 14:52:57;;;;;;;4.80;1.73;;;;;;;;;;6343094;22;20180;-61
2023/01/31 14:55:32;;;;;;;10.13;1.73;;;;;;;;;;6342632;22;20414;-62
2023/01/31 14:58:00;;;;;;;6.05;1.88;;;;;;;;;;6342455;22;20152;-62